Time;durP1;ratioP1;P1;durP2;ratioP2;P2;SDS_P1;SDS_P2;PMS_P1;PMS_P2;Temp;Humidity;BMP_temperature;BMP_pressure;BME280_temperature;BME280_humidity;BME280_pressure;Samples;Min_cycle;Max_cycle;Signal;HPM_P1;HPM_P2
2023/04/18 00:00:18;;;;;;;26.03;23.23;;;8.70;99.90;;;;;;5062006;28;20718;-49
2023/04/18 00:02:44;;;;;;;25.87;23.13;;;8.70;99.90;;;;;;5061846;28;20693;-52
2023/04/18 00:05:11;;;;;;;25.83;23.30;;;8.70;99.90;;;;;;5061829;28;20272;-50
2023/04/18 00:07:37;;;;;;;25.90;23.10;;;8.70;99.90;;;;;;5062339;28;20216;-50
2023/04/18 00:10:04;;;;;;;25.03;22.63;;;8.70;99.90;;;;;;5061132;28;20419;-53
2023/04/18 00:12:33;;;;;;;28.50;25.50;;;8.80;99.90;;;;;;5061874;28;20423;-52
2023/04/18 00:14:59;;;;;;;26.60;23.80;;;8.80;99.90;;;;;;5061641;28;20419;-50
2023/04/18 00:17:29;;;;;;;30.27;27.10;;;8.80;99.90;;;;;;5061401;28;20800;-48
2023/04/18 00:19:55;;;;;;;30.03;26.83;;;8.80;99.90;;;;;;5061208;28;20428;-48
2023/04/18 00:22:21;;;;;;;31.03;27.83;;;8.80;99.90;;;;;;5061031;28;20479;-53
2023/04/18 00:24:50;;;;;;;32.37;28.97;;;8.90;99.90;;;;;;5060614;28;20459;-52
2023/04/18 00:27:17;;;;;;;35.27;31.70;;;8.90;99.90;;;;;;5061648;28;20419;-53
2023/04/18 00:29:43;;;;;;;33.90;30.23;;;8.90;99.90;;;;;;5060947;28;20424;-47
2023/04/18 00:32:08;;;;;;;35.73;32.00;;;8.90;99.90;;;;;;5061154;28;20450;-48
2023/04/18 00:34:34;;;;;;;36.43;32.73;;;9.00;99.90;;;;;;5043320;28;20649;-51
2023/04/18 00:36:59;;;;;;;36.17;32.47;;;9.00;99.90;;;;;;5061356;28;20195;-48
2023/04/18 00:39:25;;;;;;;36.63;32.90;;;9.00;99.90;;;;;;5059480;28;20185;-51
2023/04/18 00:41:51;;;;;;;36.03;32.20;;;9.00;99.90;;;;;;5059940;28;20626;-50
2023/04/18 00:44:16;;;;;;;36.30;32.70;;;9.10;99.90;;;;;;5060792;28;20205;-48
2023/04/18 00:46:42;;;;;;;37.53;33.90;;;9.10;99.90;;;;;;5060237;28;20173;-49
2023/04/18 00:49:08;;;;;;;35.57;32.20;;;9.10;99.90;;;;;;5061260;28;20181;-53
2023/04/18 00:51:34;;;;;;;36.73;33.00;;;9.10;99.90;;;;;;5061185;28;20654;-52
2023/04/18 00:54:01;;;;;;;38.53;34.60;;;9.20;99.90;;;;;;5060717;28;20781;-46
2023/04/18 00:56:28;;;;;;;36.30;32.70;;;9.20;99.90;;;;;;5059476;28;20432;-50
2023/04/18 00:58:55;;;;;;;38.50;34.50;;;9.20;99.90;;;;;;5060383;28;20917;-50
2023/04/18 01:01:21;;;;;;;35.67;32.17;;;9.20;99.90;;;;;;5060671;28;20413;-53
2023/04/18 01:03:46;;;;;;;38.27;34.33;;;9.20;99.90;;;;;;5060591;28;20818;-49
2023/04/18 01:06:12;;;;;;;36.33;32.73;;;9.20;99.90;;;;;;5059655;28;20562;-52
2023/04/18 01:08:38;;;;;;;37.83;34.13;;;9.20;99.90;;;;;;5061081;28;20207;-49
2023/04/18 01:11:03;;;;;;;38.90;35.17;;;9.20;99.90;;;;;;5041817;28;20189;-51
2023/04/18 01:13:29;;;;;;;38.10;34.53;;;9.20;99.90;;;;;;5060232;28;20865;-50
2023/04/18 01:15:55;;;;;;;38.33;34.53;;;9.20;99.90;;;;;;5060192;28;20302;-49
2023/04/18 01:18:21;;;;;;;37.23;33.60;;;9.20;99.90;;;;;;5060432;28;20196;-49
2023/04/18 01:20:48;;;;;;;38.30;34.30;;;9.10;99.90;;;;;;5059628;28;20201;-47
2023/04/18 01:23:16;;;;;;;37.13;33.53;;;9.10;99.90;;;;;;5059932;28;21031;-52
2023/04/18 01:25:42;;;;;;;36.20;32.80;;;9.10;99.90;;;;;;5058310;28;20938;-50
2023/04/18 01:28:09;;;;;;;37.63;34.10;;;9.10;99.90;;;;;;5059678;28;20436;-49
2023/04/18 01:30:34;;;;;;;37.50;33.90;;;9.10;99.90;;;;;;5058883;28;20460;-49
2023/04/18 01:33:01;;;;;;;36.50;33.03;;;9.10;99.90;;;;;;5060334;28;21281;-49
2023/04/18 01:35:27;;;;;;;38.77;35.07;;;9.10;99.90;;;;;;5059139;28;20193;-49
2023/04/18 01:37:53;;;;;;;37.77;34.07;;;9.10;99.90;;;;;;5060086;28;20478;-49
2023/04/18 01:40:19;;;;;;;38.03;34.43;;;9.10;99.90;;;;;;5060138;28;20412;-53
2023/04/18 01:42:44;;;;;;;35.47;32.17;;;9.10;99.90;;;;;;5059288;28;20279;-52
2023/04/18 01:45:11;;;;;;;37.97;34.27;;;9.10;99.90;;;;;;5059716;28;21071;-48
2023/04/18 01:47:37;;;;;;;40.37;36.37;;;9.10;99.90;;;;;;5059688;28;20325;-50
2023/04/18 01:50:03;;;;;;;39.13;35.13;;;9.10;99.90;;;;;;5059741;28;21428;-48
2023/04/18 01:52:29;;;;;;;38.87;34.93;;;9.10;99.90;;;;;;5059148;28;20182;-47
2023/04/18 01:54:54;;;;;;;39.53;35.73;;;9.10;99.90;;;;;;5059266;28;20444;-51
2023/04/18 01:57:20;;;;;;;38.57;34.70;;;9.10;99.90;;;;;;5058880;28;20207;-51
2023/04/18 01:59:45;;;;;;;40.00;35.90;;;9.10;99.90;;;;;;5058893;28;20661;-49
2023/04/18 02:02:11;;;;;;;41.63;37.33;;;9.10;99.90;;;;;;5059534;28;20216;-50
2023/04/18 02:04:37;;;;;;;38.73;34.87;;;9.10;99.90;;;;;;5059390;28;20196;-50
2023/04/18 02:07:03;;;;;;;40.23;36.03;;;9.10;99.90;;;;;;5059841;28;20543;-51
2023/04/18 02:09:29;;;;;;;41.00;36.97;;;9.10;99.90;;;;;;5058919;28;20550;-48
2023/04/18 02:11:58;;;;;;;41.53;37.10;;;9.00;99.90;;;;;;5059270;28;20449;-50
2023/04/18 02:14:24;;;;;;;41.03;36.70;;;9.00;99.90;;;;;;5058620;28;20192;-50
2023/04/18 02:16:50;;;;;;;40.23;36.17;;;9.00;99.90;;;;;;5059433;28;20473;-52
2023/04/18 02:19:15;;;;;;;43.43;38.83;;;9.00;99.90;;;;;;5059566;28;20800;-49
2023/04/18 02:21:43;;;;;;;40.70;36.60;;;9.00;99.90;;;;;;5059331;28;20423;-50
2023/04/18 02:24:08;;;;;;;41.27;37.10;;;9.00;99.90;;;;;;5041168;28;20241;-48
2023/04/18 02:26:34;;;;;;;41.70;37.50;;;9.00;99.90;;;;;;5039770;28;20854;-49
2023/04/18 02:28:59;;;;;;;42.70;38.23;;;9.00;99.90;;;;;;5059011;28;20188;-52
2023/04/18 02:31:26;;;;;;;42.07;37.50;;;9.00;99.90;;;;;;5058991;28;20604;-53
2023/04/18 02:33:51;;;;;;;44.00;39.47;;;9.00;99.90;;;;;;5058824;28;20181;-49
2023/04/18 02:36:17;;;;;;;42.67;38.07;;;9.00;99.90;;;;;;5059183;28;20950;-48
2023/04/18 02:38:44;;;;;;;44.17;39.47;;;8.90;99.90;;;;;;5059666;28;20901;-49
2023/04/18 02:41:13;;;;;;;40.17;36.00;;;8.90;99.90;;;;;;5059184;28;20191;-49
2023/04/18 02:43:40;;;;;;;42.17;37.77;;;8.90;99.90;;;;;;5059310;28;20415;-50
2023/04/18 02:46:05;;;;;;;43.83;39.07;;;8.90;99.90;;;;;;5058795;28;20412;-51
2023/04/18 02:48:31;;;;;;;42.17;37.63;;;8.90;99.90;;;;;;5058988;28;20439;-50
2023/04/18 02:51:04;;;;;;;44.43;39.50;;;8.80;99.90;;;;;;5058900;28;20214;-53
2023/04/18 02:53:30;;;;;;;43.27;38.77;;;8.80;99.90;;;;;;5059134;28;20185;-48
2023/04/18 02:55:57;;;;;;;40.83;36.43;;;8.80;99.90;;;;;;5057873;28;20496;-49
2023/04/18 02:58:22;;;;;;;41.43;37.03;;;8.80;99.90;;;;;;5059063;28;20514;-52
2023/04/18 03:00:51;;;;;;;41.40;36.97;;;8.80;99.90;;;;;;5059104;28;20514;-51
2023/04/18 03:03:17;;;;;;;41.10;36.90;;;8.80;99.90;;;;;;5062012;28;20250;-50
2023/04/18 03:05:42;;;;;;;41.00;36.77;;;8.70;99.90;;;;;;5062763;28;20454;-51
2023/04/18 03:08:08;;;;;;;40.87;36.57;;;8.80;99.90;;;;;;5063122;28;20228;-49
2023/04/18 03:10:34;;;;;;;42.07;37.87;;;8.80;99.90;;;;;;5062531;28;20177;-50
2023/04/18 03:13:00;;;;;;;42.70;38.13;;;8.80;99.90;;;;;;5062366;28;20185;-49
2023/04/18 03:15:26;;;;;;;40.80;36.50;;;8.80;99.90;;;;;;5062384;28;20439;-51
2023/04/18 03:17:52;;;;;;;42.50;38.00;;;8.80;99.90;;;;;;5044467;28;20457;-53
2023/04/18 03:20:18;;;;;;;40.37;35.20;;;8.80;99.90;;;;;;5062424;28;20434;-51
2023/04/18 03:22:43;;;;;;;40.13;35.93;;;8.80;99.90;;;;;;5062181;28;20260;-49
2023/04/18 03:25:09;;;;;;;39.27;35.10;;;8.80;99.90;;;;;;5061836;28;20291;-47
2023/04/18 03:27:35;;;;;;;39.60;35.50;;;8.70;99.90;;;;;;5061380;28;20181;-51
2023/04/18 03:30:01;;;;;;;39.13;33.13;;;8.70;99.90;;;;;;5062235;28;20722;-49
2023/04/18 03:32:27;;;;;;;37.10;33.20;;;8.70;99.90;;;;;;5063105;28;20447;-53
2023/04/18 03:34:53;;;;;;;40.07;35.07;;;8.70;99.90;;;;;;5062844;28;20868;-53
2023/04/18 03:37:18;;;;;;;38.53;34.57;;;8.70;99.90;;;;;;5062143;28;20190;-51
2023/04/18 03:39:44;;;;;;;37.70;33.90;;;8.60;99.90;;;;;;5062085;28;20477;-49
2023/04/18 03:42:10;;;;;;;37.63;33.30;;;8.60;99.90;;;;;;5061678;28;20197;-50
2023/04/18 03:44:35;;;;;;;39.50;35.20;;;8.50;99.90;;;;;;5062450;28;20911;-50
2023/04/18 03:47:01;;;;;;;38.70;34.13;;;8.60;99.90;;;;;;5062097;28;20173;-51
2023/04/18 03:49:26;;;;;;;39.70;34.20;;;8.50;99.90;;;;;;5061229;28;20207;-48
2023/04/18 03:51:52;;;;;;;41.33;36.83;;;8.50;99.90;;;;;;5062144;28;20177;-51
2023/04/18 03:54:18;;;;;;;39.83;35.60;;;8.50;99.90;;;;;;5061911;28;20599;-49
2023/04/18 03:56:44;;;;;;;38.70;34.63;;;8.40;99.90;;;;;;5061972;28;20193;-52
2023/04/18 03:59:10;;;;;;;36.63;32.70;;;8.40;99.90;;;;;;5061398;28;20230;-50
2023/04/18 04:01:36;;;;;;;39.47;34.43;;;8.40;99.90;;;;;;5044122;28;20854;-50
2023/04/18 04:04:02;;;;;;;39.80;34.73;;;8.40;99.90;;;;;;5061084;28;20498;-50
2023/04/18 04:06:28;;;;;;;38.87;34.43;;;8.40;99.90;;;;;;5060849;28;20431;-49
2023/04/18 04:08:54;;;;;;;37.93;33.70;;;8.40;99.90;;;;;;5062329;28;20426;-49
2023/04/18 04:11:20;;;;;;;39.00;34.27;;;8.40;99.90;;;;;;5062150;28;20184;-51
2023/04/18 04:13:46;;;;;;;40.73;36.33;;;8.40;99.90;;;;;;5060510;28;20193;-50
2023/04/18 04:16:12;;;;;;;38.50;34.50;;;8.40;99.90;;;;;;5060876;28;20434;-49
2023/04/18 04:18:37;;;;;;;39.30;34.13;;;8.40;99.90;;;;;;5061086;28;20953;-47
2023/04/18 04:21:04;;;;;;;40.03;35.70;;;8.40;99.90;;;;;;5059570;28;20182;-50
2023/04/18 04:23:30;;;;;;;39.63;35.07;;;8.40;99.90;;;;;;5043535;28;20259;-50
2023/04/18 04:25:57;;;;;;;42.10;37.60;;;8.40;99.90;;;;;;5060272;28;20467;-48
2023/04/18 04:28:23;;;;;;;39.20;35.00;;;8.40;99.90;;;;;;5060767;28;20188;-46
2023/04/18 04:30:52;;;;;;;39.27;35.07;;;8.40;99.90;;;;;;5060799;28;20759;-48
2023/04/18 04:33:19;;;;;;;38.43;34.53;;;8.40;99.90;;;;;;5043028;28;20423;-48
2023/04/18 04:35:48;;;;;;;40.00;35.73;;;8.30;99.90;;;;;;5061517;28;20419;-48
2023/04/18 04:38:14;;;;;;;41.10;36.70;;;8.40;99.90;;;;;;5060714;28;20436;-52
2023/04/18 04:40:41;;;;;;;39.23;34.00;;;8.40;99.90;;;;;;5060870;28;20439;-49
2023/04/18 04:43:11;;;;;;;38.10;34.00;;;8.30;99.90;;;;;;5060664;28;20962;-46
2023/04/18 04:45:37;;;;;;;37.50;33.40;;;8.30;99.90;;;;;;5060910;28;20760;-48
2023/04/18 04:48:04;;;;;;;39.97;34.87;;;8.30;99.90;;;;;;5061215;28;20422;-47
2023/04/18 04:50:29;;;;;;;37.60;33.60;;;8.30;99.90;;;;;;5060217;28;20431;-52
2023/04/18 04:52:55;;;;;;;40.30;35.40;;;8.30;99.90;;;;;;5061075;28;20426;-50
2023/04/18 04:55:21;;;;;;;39.77;34.80;;;8.30;99.90;;;;;;5061081;28;20186;-50
2023/04/18 04:57:46;;;;;;;36.70;32.83;;;8.30;99.90;;;;;;5060747;28;20274;-49
2023/04/18 05:00:13;;;;;;;40.70;35.40;;;8.30;99.90;;;;;;5060466;28;21057;-53
2023/04/18 05:02:38;;;;;;;39.17;34.70;;;8.30;99.90;;;;;;5061042;28;20181;-45
2023/04/18 05:05:04;;;;;;;40.83;36.43;;;8.30;99.90;;;;;;5060665;28;20455;-49
2023/04/18 05:07:30;;;;;;;38.90;34.00;;;8.30;99.90;;;;;;5061186;28;20293;-51
2023/04/18 05:09:55;;;;;;;39.23;35.00;;;8.30;99.90;;;;;;5060401;28;20418;-51
2023/04/18 05:12:21;;;;;;;40.10;35.30;;;8.30;99.90;;;;;;5060535;28;20187;-46
2023/04/18 05:14:47;;;;;;;38.03;34.03;;;8.30;99.90;;;;;;5060527;28;20192;-53
2023/04/18 05:17:12;;;;;;;37.67;33.07;;;8.30;99.90;;;;;;5060400;28;20423;-51
2023/04/18 05:19:39;;;;;;;38.23;33.97;;;8.30;99.90;;;;;;5060142;28;20686;-47
2023/04/18 05:22:04;;;;;;;38.27;33.53;;;8.30;99.90;;;;;;5060378;28;20228;-48
2023/04/18 05:24:31;;;;;;;38.57;34.20;;;8.30;99.90;;;;;;5041869;28;20459;-52
2023/04/18 05:26:57;;;;;;;40.70;35.50;;;8.30;99.90;;;;;;5059651;28;20204;-53
2023/04/18 05:29:22;;;;;;;38.47;34.27;;;8.30;99.90;;;;;;5060012;28;21223;-49
2023/04/18 05:31:48;;;;;;;38.10;34.10;;;8.30;99.90;;;;;;5042214;28;20308;-51
2023/04/18 05:34:13;;;;;;;38.97;34.77;;;8.30;99.90;;;;;;5059676;28;20501;-49
2023/04/18 05:36:39;;;;;;;41.17;33.67;;;8.30;99.90;;;;;;5059862;28;20199;-48
2023/04/18 05:39:05;;;;;;;38.23;34.13;;;8.30;99.90;;;;;;5059815;28;20250;-48
2023/04/18 05:41:30;;;;;;;39.13;32.87;;;8.30;99.90;;;;;;5060415;28;20623;-51
2023/04/18 05:43:56;;;;;;;36.40;32.50;;;8.30;99.90;;;;;;5041653;28;20185;-51
2023/04/18 05:46:22;;;;;;;38.37;32.87;;;8.20;99.90;;;;;;5059710;28;20181;-50
2023/04/18 05:48:47;;;;;;;37.00;33.00;;;8.20;99.90;;;;;;5058995;28;20230;-47
2023/04/18 05:51:13;;;;;;;35.67;31.97;;;8.10;99.90;;;;;;5059493;28;20716;-52
2023/04/18 05:53:38;;;;;;;41.07;33.47;;;8.10;99.90;;;;;;5059795;28;20177;-47
2023/04/18 05:56:04;;;;;;;38.37;34.23;;;8.20;99.90;;;;;;5059550;28;20632;-47
2023/04/18 05:58:30;;;;;;;36.30;31.07;;;8.20;99.90;;;;;;5059764;28;20614;-47
2023/04/18 06:00:56;;;;;;;34.93;31.37;;;8.10;99.90;;;;;;5059477;28;20411;-47
2023/04/18 06:03:21;;;;;;;34.40;30.80;;;8.20;99.90;;;;;;5059420;28;20181;-48
2023/04/18 06:05:47;;;;;;;35.57;31.97;;;8.20;99.90;;;;;;5059678;28;20734;-49
2023/04/18 06:08:12;;;;;;;35.10;31.37;;;8.20;99.90;;;;;;5059499;28;20181;-50
2023/04/18 06:10:38;;;;;;;36.73;32.83;;;8.30;99.90;;;;;;5059629;28;20189;-49
2023/04/18 06:13:04;;;;;;;35.50;31.57;;;8.30;99.90;;;;;;5059642;28;20682;-51
2023/04/18 06:15:30;;;;;;;37.00;31.70;;;8.30;99.90;;;;;;5059555;28;20693;-51
2023/04/18 06:17:55;;;;;;;35.83;31.47;;;8.40;99.90;;;;;;5040299;28;20181;-48
2023/04/18 06:20:22;;;;;;;35.87;32.27;;;8.40;99.90;;;;;;5059073;28;20609;-47
2023/04/18 06:22:47;;;;;;;34.83;30.90;;;8.40;99.90;;;;;;5060261;28;20701;-50
2023/04/18 06:25:13;;;;;;;35.23;30.83;;;8.30;99.90;;;;;;5059091;28;20471;-48
2023/04/18 06:27:39;;;;;;;36.70;31.37;;;8.30;99.90;;;;;;5059553;28;20173;-50
2023/04/18 06:30:06;;;;;;;36.90;29.97;;;8.20;99.90;;;;;;5059996;28;20427;-50
2023/04/18 06:32:32;;;;;;;35.57;31.57;;;8.20;99.90;;;;;;5059245;28;20169;-50
2023/04/18 06:34:57;;;;;;;35.57;31.97;;;8.10;99.90;;;;;;5059475;28;20422;-48
2023/04/18 06:37:23;;;;;;;33.77;30.03;;;8.20;99.90;;;;;;5062149;28;20189;-51
2023/04/18 06:39:49;;;;;;;32.57;29.17;;;8.20;99.90;;;;;;5065801;28;20396;-48
2023/04/18 06:42:14;;;;;;;33.77;30.27;;;8.20;99.90;;;;;;5066061;28;20715;-47
2023/04/18 06:44:41;;;;;;;32.90;29.33;;;8.20;99.90;;;;;;5066161;28;20581;-47
2023/04/18 06:47:08;;;;;;;33.03;29.80;;;8.30;99.90;;;;;;5065328;28;20453;-51
2023/04/18 06:49:33;;;;;;;32.67;29.43;;;8.30;99.90;;;;;;5065502;28;20431;-49
2023/04/18 06:51:59;;;;;;;35.30;31.10;;;8.40;99.90;;;;;;5065556;28;21260;-51
2023/04/18 06:54:25;;;;;;;34.20;30.50;;;8.40;99.90;;;;;;5066137;28;20581;-49
2023/04/18 06:56:52;;;;;;;33.87;30.27;;;8.50;99.90;;;;;;5065672;28;20189;-53
2023/04/18 06:59:20;;;;;;;34.17;30.50;;;8.50;99.90;;;;;;5065611;28;20993;-51
2023/04/18 07:01:46;;;;;;;32.47;29.00;;;8.50;99.90;;;;;;5064991;28;20434;-48
2023/04/18 07:04:12;;;;;;;34.20;30.60;;;8.50;99.90;;;;;;5064430;28;20476;-49
2023/04/18 07:06:37;;;;;;;31.90;28.37;;;8.50;99.90;;;;;;5065550;28;20910;-53
2023/04/18 07:09:03;;;;;;;33.13;29.57;;;8.50;99.90;;;;;;5066111;28;20190;-51
2023/04/18 07:11:29;;;;;;;31.83;28.53;;;8.40;99.90;;;;;;5066128;28;20275;-47
2023/04/18 07:13:54;;;;;;;32.40;29.20;;;8.40;99.90;;;;;;5065929;28;20181;-51
2023/04/18 07:16:20;;;;;;;32.23;28.80;;;8.40;99.90;;;;;;5065541;28;20208;-50
2023/04/18 07:18:45;;;;;;;32.53;29.20;;;8.40;99.90;;;;;;5065769;28;20185;-49
2023/04/18 07:21:11;;;;;;;33.73;30.07;;;8.50;99.90;;;;;;5066059;28;20595;-46
2023/04/18 07:23:37;;;;;;;34.30;30.60;;;8.50;99.90;;;;;;5064952;28;20229;-49
2023/04/18 07:26:04;;;;;;;33.47;30.10;;;8.50;99.90;;;;;;5065777;28;20204;-46
2023/04/18 07:28:31;;;;;;;33.93;30.40;;;8.50;99.90;;;;;;5065520;28;20230;-47
2023/04/18 07:30:57;;;;;;;38.60;32.83;;;8.50;99.90;;;;;;5065048;28;20442;-51
2023/04/18 07:33:23;;;;;;;35.47;31.70;;;8.50;99.90;;;;;;5065070;28;20815;-48
2023/04/18 07:35:50;;;;;;;35.33;31.67;;;8.50;99.90;;;;;;5065517;28;20423;-51
2023/04/18 07:38:16;;;;;;;35.93;32.13;;;8.50;99.90;;;;;;5064982;28;20427;-52
2023/04/18 07:40:43;;;;;;;36.47;30.80;;;8.50;99.90;;;;;;5065634;28;20822;-48
2023/04/18 07:43:09;;;;;;;34.73;31.20;;;8.50;99.90;;;;;;5064930;28;20920;-47
2023/04/18 07:45:37;;;;;;;33.60;30.03;;;8.50;99.90;;;;;;5065358;28;20466;-48
2023/04/18 07:48:03;;;;;;;35.50;31.70;;;8.50;99.90;;;;;;5046753;28;20196;-49
2023/04/18 07:50:29;;;;;;;33.13;29.00;;;8.50;99.90;;;;;;5061252;28;20415;-51
2023/04/18 07:52:54;;;;;;;33.23;29.67;;;8.50;99.90;;;;;;5061975;28;20419;-46
2023/04/18 07:55:20;;;;;;;33.60;29.97;;;8.50;99.90;;;;;;5062254;28;20189;-47
2023/04/18 07:57:49;;;;;;;33.17;29.63;;;8.50;99.90;;;;;;5062026;28;20219;-53
2023/04/18 08:00:18;;;;;;;33.30;29.70;;;8.50;99.90;;;;;;5060424;28;20194;-48
2023/04/18 08:02:44;;;;;;;36.23;31.33;;;8.50;99.90;;;;;;5061322;28;20442;-52
2023/04/18 08:05:10;;;;;;;33.70;30.10;;;8.70;99.90;;;;;;5062217;28;20463;-47
2023/04/18 08:07:36;;;;;;;34.63;31.10;;;8.60;99.90;;;;;;5061426;28;20419;-51
2023/04/18 08:10:02;;;;;;;36.03;31.53;;;8.70;99.90;;;;;;5061927;28;20944;-53
2023/04/18 08:12:27;;;;;;;32.50;29.20;;;8.70;99.90;;;;;;5062422;28;20182;-45
2023/04/18 08:14:53;;;;;;;31.97;28.97;;;8.70;99.90;;;;;;5061564;28;20588;-52
2023/04/18 08:17:19;;;;;;;33.67;30.20;;;8.80;99.90;;;;;;5061902;28;20284;-52
2023/04/18 08:19:45;;;;;;;33.10;29.90;;;8.80;99.90;;;;;;5062188;28;20630;-50
2023/04/18 08:22:10;;;;;;;33.60;30.20;;;8.80;99.90;;;;;;5061776;28;20518;-52
2023/04/18 08:24:40;;;;;;;32.23;28.83;;;8.90;99.90;;;;;;5061598;28;20657;-49
2023/04/18 08:27:06;;;;;;;32.90;29.43;;;9.00;99.90;;;;;;5061787;28;20430;-50
2023/04/18 08:29:32;;;;;;;31.10;28.03;;;9.00;99.90;;;;;;5061289;28;20420;-50
2023/04/18 08:31:58;;;;;;;31.13;28.10;;;9.10;99.90;;;;;;5059929;28;20550;-46
2023/04/18 08:34:23;;;;;;;31.67;28.63;;;9.20;99.90;;;;;;5061293;28;20781;-47
2023/04/18 08:36:50;;;;;;;30.00;27.17;;;9.30;99.90;;;;;;5061609;28;20649;-46
2023/04/18 08:39:15;;;;;;;29.87;27.03;;;9.30;99.90;;;;;;5061196;28;20245;-47
2023/04/18 08:41:42;;;;;;;32.33;29.17;;;9.40;99.90;;;;;;5043029;28;20531;-51
2023/04/18 08:44:08;;;;;;;31.40;28.30;;;9.50;99.90;;;;;;5061275;28;20465;-51
2023/04/18 08:46:34;;;;;;;30.67;27.67;;;9.40;99.90;;;;;;5061010;28;20427;-47
2023/04/18 08:49:03;;;;;;;31.43;28.43;;;9.50;99.90;;;;;;5060954;28;20486;-50
2023/04/18 08:51:32;;;;;;;32.27;28.87;;;9.40;99.90;;;;;;5061340;28;20401;-51
2023/04/18 08:54:02;;;;;;;29.17;26.27;;;9.40;99.90;;;;;;5060305;28;20418;-50
2023/04/18 08:56:27;;;;;;;31.37;28.20;;;9.40;99.90;;;;;;5059689;28;20890;-51
2023/04/18 08:58:55;;;;;;;30.67;27.40;;;9.40;99.90;;;;;;5060865;28;21177;-51
2023/04/18 09:01:21;;;;;;;30.53;27.57;;;9.50;99.90;;;;;;5061322;28;20175;-49
2023/04/18 09:03:47;;;;;;;29.60;26.70;;;9.50;99.90;;;;;;5060991;28;20734;-51
2023/04/18 09:06:17;;;;;;;32.30;29.00;;;9.50;99.90;;;;;;5042801;28;20418;-47
2023/04/18 09:08:55;;;;;;;31.87;28.87;;;9.60;99.90;;;;;;5042752;28;20677;-49
2023/04/18 09:11:27;;;;;;;30.23;27.13;;;9.60;99.90;;;;;;5060747;28;20449;-51
2023/04/18 09:13:55;;;;;;;31.63;28.63;;;9.50;99.90;;;;;;5060570;28;20423;-49
2023/04/18 09:16:21;;;;;;;31.73;28.50;;;9.50;99.90;;;;;;5042325;28;20960;-49
2023/04/18 09:19:16;;;;;;;31.53;27.90;;;9.50;99.90;;;;;;5059882;28;20531;-50
2023/04/18 09:21:45;;;;;;;30.60;27.37;;;9.40;99.90;;;;;;5038044;28;20440;-48
2023/04/18 09:24:23;;;;;;;30.97;27.87;;;9.30;99.90;;;;;;5059717;28;20470;-46
2023/04/18 09:26:50;;;;;;;30.67;27.57;;;9.20;99.90;;;;;;5060434;28;20421;-51
2023/04/18 09:29:17;;;;;;;31.20;28.13;;;9.20;99.90;;;;;;5060045;28;20514;-52
2023/04/18 09:32:00;;;;;;;32.67;29.23;;;9.20;99.90;;;;;;5041925;28;20467;-48
2023/04/18 09:34:27;;;;;;;32.70;29.30;;;9.10;99.90;;;;;;5060880;28;20524;-49
2023/04/18 09:37:08;;;;;;;32.90;29.40;;;9.10;99.90;;;;;;5059883;28;20489;-46
2023/04/18 09:39:35;;;;;;;32.47;29.17;;;9.00;99.90;;;;;;5059891;28;21077;-47
2023/04/18 09:42:01;;;;;;;33.60;30.00;;;9.00;99.90;;;;;;5059984;28;20416;-51
2023/04/18 09:44:27;;;;;;;34.70;31.30;;;9.00;99.90;;;;;;5060266;28;20474;-50
2023/04/18 09:46:52;;;;;;;34.80;31.23;;;8.90;99.90;;;;;;5060027;28;20189;-47
2023/04/18 09:49:18;;;;;;;36.47;32.87;;;8.80;99.90;;;;;;5060332;28;20703;-48
2023/04/18 09:51:45;;;;;;;34.77;31.10;;;8.70;99.90;;;;;;5060390;28;20172;-49
2023/04/18 09:54:14;;;;;;;35.67;31.80;;;8.70;99.90;;;;;;5059268;28;20439;-48
2023/04/18 09:56:43;;;;;;;35.67;31.97;;;8.70;99.90;;;;;;5059727;28;20865;-51
2023/04/18 09:59:10;;;;;;;36.23;32.33;;;8.70;99.90;;;;;;5059718;28;20465;-47
2023/04/18 10:01:36;;;;;;;36.53;32.73;;;8.70;99.90;;;;;;5041799;28;20791;-51
2023/04/18 10:04:05;;;;;;;35.97;32.27;;;8.70;99.90;;;;;;5059755;28;20422;-46
2023/04/18 10:06:33;;;;;;;44.63;40.03;;;8.70;99.90;;;;;;5059275;28;20455;-49
2023/04/18 10:09:03;;;;;;;38.97;34.97;;;8.70;99.90;;;;;;5059710;28;20629;-49
2023/04/18 10:11:30;;;;;;;40.07;35.97;;;8.80;99.90;;;;;;5040943;28;20435;-54
2023/04/18 10:14:05;;;;;;;38.77;34.67;;;8.70;99.90;;;;;;5059563;28;21449;-49
2023/04/18 10:16:32;;;;;;;43.13;38.60;;;8.70;99.90;;;;;;5041619;28;20526;-51
2023/04/18 10:19:20;;;;;;;39.97;36.00;;;8.70;99.90;;;;;;5059815;28;20408;-52
2023/04/18 10:21:57;;;;;;;37.37;33.60;;;8.70;99.90;;;;;;5041086;28;20427;-50
2023/04/18 10:24:44;;;;;;;36.37;32.70;;;8.80;99.90;;;;;;5039964;28;20611;-50
2023/04/18 10:27:10;;;;;;;36.20;32.43;;;8.80;99.90;;;;;;5059787;28;20757;-52
2023/04/18 10:29:47;;;;;;;44.00;40.00;;;8.90;99.90;;;;;;5059682;28;20453;-48
2023/04/18 10:32:14;;;;;;;50.30;45.70;;;8.90;99.90;;;;;;5059282;28;20351;-48
2023/04/18 10:34:40;;;;;;;38.83;34.93;;;8.90;99.90;;;;;;5059362;28;20700;-52
2023/04/18 10:37:06;;;;;;;43.47;39.30;;;8.90;99.90;;;;;;5059218;28;20423;-52
2023/04/18 10:39:57;;;;;;;41.10;37.30;;;8.90;99.90;;;;;;5058787;28;20435;-53
2023/04/18 10:42:56;;;;;;;36.27;32.83;;;8.90;99.90;;;;;;5058980;28;20545;-48
2023/04/18 10:45:23;;;;;;;40.10;36.20;;;9.00;99.90;;;;;;5059245;28;20459;-52
2023/04/18 10:47:49;;;;;;;36.40;32.70;;;9.00;99.90;;;;;;5059380;28;20404;-50
2023/04/18 10:50:16;;;;;;;37.43;33.80;;;9.10;99.90;;;;;;5059060;28;20430;-51
2023/04/18 10:52:42;;;;;;;38.10;34.10;;;9.10;99.90;;;;;;5058646;28;20512;-50
2023/04/18 10:55:28;;;;;;;36.83;33.03;;;9.00;99.90;;;;;;5059398;28;20420;-48
2023/04/18 10:57:57;;;;;;;36.47;32.77;;;9.00;99.90;;;;;;5059562;28;20821;-49
2023/04/18 11:00:23;;;;;;;35.87;32.40;;;9.10;99.90;;;;;;5059019;28;20797;-49
2023/04/18 11:02:59;;;;;;;36.00;32.47;;;9.10;99.90;;;;;;5059449;28;20953;-48
2023/04/18 11:05:27;;;;;;;36.60;32.93;;;9.10;99.90;;;;;;5058683;28;20549;-50
2023/04/18 11:07:53;;;;;;;34.57;31.30;;;9.00;99.90;;;;;;5059127;28;20422;-51
2023/04/18 11:10:24;;;;;;;35.60;32.10;;;9.10;99.90;;;;;;5059518;28;20419;-48
2023/04/18 11:12:50;;;;;;;38.83;34.80;;;9.10;99.90;;;;;;5040940;28;20489;-51
2023/04/18 11:15:20;;;;;;;38.73;34.73;;;9.10;99.90;;;;;;5058758;28;20921;-51
2023/04/18 11:17:53;;;;;;;38.27;34.37;;;9.10;99.90;;;;;;5059093;28;20768;-49
2023/04/18 11:20:19;;;;;;;40.13;35.83;;;9.10;99.90;;;;;;5059319;28;21179;-51
2023/04/18 11:22:49;;;;;;;39.30;35.17;;;9.10;99.90;;;;;;5059313;28;20582;-48
2023/04/18 11:25:16;;;;;;;39.33;35.03;;;9.20;99.90;;;;;;5061536;28;20672;-46
2023/04/18 11:27:43;;;;;;;39.63;35.43;;;9.20;99.90;;;;;;5062272;28;20430;-47
2023/04/18 11:30:10;;;;;;;38.50;34.60;;;9.30;99.90;;;;;;5062403;28;20506;-49
2023/04/18 11:32:35;;;;;;;39.50;35.20;;;9.30;99.90;;;;;;5044795;28;20428;-49
2023/04/18 11:35:02;;;;;;;38.30;34.40;;;9.40;99.90;;;;;;5062872;28;20485;-49
2023/04/18 11:37:28;;;;;;;37.53;33.80;;;9.40;99.90;;;;;;5062518;28;20874;-49
2023/04/18 11:39:54;;;;;;;39.47;35.50;;;9.40;99.90;;;;;;5062139;28;20723;-45
2023/04/18 11:42:25;;;;;;;37.60;33.80;;;9.40;99.90;;;;;;5062033;28;20189;-49
2023/04/18 11:44:50;;;;;;;39.87;35.77;;;9.40;99.90;;;;;;5062429;28;20529;-50
2023/04/18 11:47:28;;;;;;;38.40;34.53;;;9.40;99.90;;;;;;5062364;28;20413;-51
2023/04/18 11:49:58;;;;;;;40.03;35.97;;;9.40;99.90;;;;;;5062271;28;20664;-52
2023/04/18 11:52:26;;;;;;;39.13;35.23;;;9.50;99.90;;;;;;5062179;28;20766;-49
2023/04/18 11:54:52;;;;;;;39.73;35.80;;;9.50;99.90;;;;;;5062744;28;20425;-49
2023/04/18 11:57:27;;;;;;;38.90;34.87;;;9.50;99.90;;;;;;5062258;28;20409;-51
2023/04/18 11:59:57;;;;;;;38.97;34.97;;;9.50;99.90;;;;;;5062577;28;20464;-49
2023/04/18 12:02:39;;;;;;;38.70;34.70;;;9.50;99.90;;;;;;5061858;28;20424;-48
2023/04/18 12:05:05;;;;;;;38.93;35.07;;;9.50;99.90;;;;;;5062214;28;20467;-52
2023/04/18 12:07:35;;;;;;;39.50;35.43;;;9.50;99.90;;;;;;5062237;28;20428;-51
2023/04/18 12:10:22;;;;;;;38.67;34.90;;;9.50;99.90;;;;;;5061461;28;20853;-49
2023/04/18 12:12:53;;;;;;;40.17;36.07;;;9.50;99.90;;;;;;5043632;28;20432;-50
2023/04/18 12:15:20;;;;;;;39.83;35.73;;;9.60;99.90;;;;;;5061415;28;20427;-48
2023/04/18 12:17:47;;;;;;;42.13;37.83;;;9.60;99.90;;;;;;5061642;28;20416;-51
2023/04/18 12:20:14;;;;;;;40.43;36.30;;;9.60;99.90;;;;;;5061549;28;20423;-48
2023/04/18 12:22:41;;;;;;;40.57;36.47;;;9.60;99.90;;;;;;5061259;28;20463;-50
2023/04/18 12:25:21;;;;;;;41.20;37.10;;;9.60;99.90;;;;;;5061616;28;20464;-47
2023/04/18 12:27:54;;;;;;;41.50;37.03;;;9.60;99.90;;;;;;5061454;28;20532;-48
2023/04/18 12:30:22;;;;;;;39.57;35.47;;;9.60;99.90;;;;;;5061201;28;20870;-51
2023/04/18 12:32:49;;;;;;;40.13;36.23;;;9.60;99.90;;;;;;5061423;28;20408;-47
2023/04/18 12:35:16;;;;;;;40.23;36.00;;;9.70;99.90;;;;;;5061115;28;20511;-46